sensor_id;sensor_type;location;lat;lon;timestamp;P1;durP1;ratioP1;P2;durP2;ratioP2
22965;SDS011;11649;48.090;9.754;2023-07-31T00:01:18;6.88;;;2.70;;
22965;SDS011;11649;48.090;9.754;2023-07-31T00:03:45;5.13;;;2.60;;
22965;SDS011;11649;48.090;9.754;2023-07-31T00:06:41;10.30;;;3.35;;
22965;SDS011;11649;48.090;9.754;2023-07-31T00:09:08;5.60;;;2.92;;
22965;SDS011;11649;48.090;9.754;2023-07-31T00:11:35;7.68;;;2.63;;
22965;SDS011;11649;48.090;9.754;2023-07-31T00:14:01;7.07;;;2.75;;
22965;SDS011;11649;48.090;9.754;2023-07-31T00:16:28;5.03;;;2.83;;
22965;SDS011;11649;48.090;9.754;2023-07-31T00:18:55;3.72;;;2.53;;
22965;SDS011;11649;48.090;9.754;2023-07-31T00:21:22;4.43;;;2.90;;
22965;SDS011;11649;48.090;9.754;2023-07-31T00:23:49;4.53;;;2.72;;
22965;SDS011;11649;48.090;9.754;2023-07-31T00:26:15;5.88;;;3.00;;
22965;SDS011;11649;48.090;9.754;2023-07-31T00:28:42;6.85;;;3.00;;
22965;SDS011;11649;48.090;9.754;2023-07-31T00:31:09;6.82;;;2.53;;
22965;SDS011;11649;48.090;9.754;2023-07-31T00:33:36;3.33;;;2.65;;
22965;SDS011;11649;48.090;9.754;2023-07-31T00:36:04;3.42;;;2.38;;
22965;SDS011;11649;48.090;9.754;2023-07-31T00:38:30;3.75;;;2.70;;
22965;SDS011;11649;48.090;9.754;2023-07-31T00:40:57;4.07;;;2.30;;
22965;SDS011;11649;48.090;9.754;2023-07-31T00:43:24;6.68;;;2.97;;
22965;SDS011;11649;48.090;9.754;2023-07-31T00:46:08;5.53;;;2.50;;
22965;SDS011;11649;48.090;9.754;2023-07-31T00:48:35;4.85;;;2.63;;
22965;SDS011;11649;48.090;9.754;2023-07-31T00:51:03;7.10;;;2.75;;
22965;SDS011;11649;48.090;9.754;2023-07-31T00:53:30;6.45;;;2.30;;
22965;SDS011;11649;48.090;9.754;2023-07-31T00:55:57;6.97;;;2.67;;
22965;SDS011;11649;48.090;9.754;2023-07-31T00:58:24;3.17;;;2.50;;
22965;SDS011;11649;48.090;9.754;2023-07-31T01:00:51;6.38;;;2.42;;
22965;SDS011;11649;48.090;9.754;2023-07-31T01:03:18;4.40;;;2.97;;
22965;SDS011;11649;48.090;9.754;2023-07-31T01:08:49;3.65;;;2.63;;
22965;SDS011;11649;48.090;9.754;2023-07-31T01:11:28;3.85;;;2.63;;
22965;SDS011;11649;48.090;9.754;2023-07-31T01:13:56;4.78;;;2.40;;
22965;SDS011;11649;48.090;9.754;2023-07-31T01:16:25;4.78;;;2.60;;
22965;SDS011;11649;48.090;9.754;2023-07-31T01:18:52;3.20;;;2.78;;
22965;SDS011;11649;48.090;9.754;2023-07-31T01:27:04;6.70;;;2.78;;
22965;SDS011;11649;48.090;9.754;2023-07-31T01:29:43;6.10;;;2.50;;
22965;SDS011;11649;48.090;9.754;2023-07-31T01:32:16;5.20;;;2.20;;
22965;SDS011;11649;48.090;9.754;2023-07-31T01:34:44;3.67;;;2.03;;
22965;SDS011;11649;48.090;9.754;2023-07-31T01:37:12;5.25;;;2.45;;
22965;SDS011;11649;48.090;9.754;2023-07-31T01:39:39;4.95;;;2.63;;
22965;SDS011;11649;48.090;9.754;2023-07-31T01:42:06;5.78;;;2.20;;
22965;SDS011;11649;48.090;9.754;2023-07-31T01:44:33;6.50;;;2.60;;
22965;SDS011;11649;48.090;9.754;2023-07-31T01:47:00;2.97;;;2.30;;
22965;SDS011;11649;48.090;9.754;2023-07-31T01:49:27;3.15;;;2.33;;
22965;SDS011;11649;48.090;9.754;2023-07-31T01:51:54;3.67;;;2.20;;
22965;SDS011;11649;48.090;9.754;2023-07-31T01:54:20;3.25;;;2.42;;
22965;SDS011;11649;48.090;9.754;2023-07-31T01:56:47;4.32;;;2.40;;
22965;SDS011;11649;48.090;9.754;2023-07-31T01:59:14;6.65;;;2.67;;
22965;SDS011;11649;48.090;9.754;2023-07-31T02:01:41;3.95;;;2.30;;
22965;SDS011;11649;48.090;9.754;2023-07-31T02:04:07;6.38;;;2.83;;
22965;SDS011;11649;48.090;9.754;2023-07-31T02:06:34;3.33;;;2.28;;
22965;SDS011;11649;48.090;9.754;2023-07-31T02:09:01;5.43;;;2.50;;
22965;SDS011;11649;48.090;9.754;2023-07-31T02:11:29;3.97;;;2.45;;
22965;SDS011;11649;48.090;9.754;2023-07-31T02:13:56;4.75;;;2.38;;
22965;SDS011;11649;48.090;9.754;2023-07-31T02:16:23;5.95;;;2.38;;
22965;SDS011;11649;48.090;9.754;2023-07-31T02:18:50;4.60;;;2.50;;
22965;SDS011;11649;48.090;9.754;2023-07-31T02:21:16;4.20;;;2.58;;
22965;SDS011;11649;48.090;9.754;2023-07-31T02:23:43;3.40;;;2.03;;
22965;SDS011;11649;48.090;9.754;2023-07-31T02:26:10;2.90;;;2.40;;
22965;SDS011;11649;48.090;9.754;2023-07-31T02:28:37;2.60;;;2.40;;
22965;SDS011;11649;48.090;9.754;2023-07-31T02:31:04;4.40;;;2.60;;
22965;SDS011;11649;48.090;9.754;2023-07-31T02:33:30;5.32;;;2.42;;
22965;SDS011;11649;48.090;9.754;2023-07-31T02:35:57;4.45;;;2.40;;
22965;SDS011;11649;48.090;9.754;2023-07-31T02:38:24;4.13;;;2.40;;
22965;SDS011;11649;48.090;9.754;2023-07-31T02:40:51;4.60;;;2.10;;
22965;SDS011;11649;48.090;9.754;2023-07-31T02:43:17;3.08;;;2.20;;
22965;SDS011;11649;48.090;9.754;2023-07-31T02:45:44;3.42;;;2.50;;
22965;SDS011;11649;48.090;9.754;2023-07-31T02:48:11;4.97;;;2.55;;
22965;SDS011;11649;48.090;9.754;2023-07-31T02:50:38;3.58;;;2.50;;
22965;SDS011;11649;48.090;9.754;2023-07-31T02:53:04;6.07;;;2.72;;
22965;SDS011;11649;48.090;9.754;2023-07-31T02:55:31;4.50;;;2.75;;
22965;SDS011;11649;48.090;9.754;2023-07-31T02:57:58;4.40;;;2.58;;
22965;SDS011;11649;48.090;9.754;2023-07-31T03:00:25;5.82;;;2.75;;
22965;SDS011;11649;48.090;9.754;2023-07-31T03:02:51;3.97;;;2.33;;
22965;SDS011;11649;48.090;9.754;2023-07-31T03:05:18;4.75;;;2.38;;
22965;SDS011;11649;48.090;9.754;2023-07-31T03:07:45;5.22;;;2.75;;
22965;SDS011;11649;48.090;9.754;2023-07-31T03:10:12;3.53;;;2.65;;
22965;SDS011;11649;48.090;9.754;2023-07-31T03:12:39;3.47;;;2.45;;
22965;SDS011;11649;48.090;9.754;2023-07-31T03:15:07;4.35;;;2.78;;
22965;SDS011;11649;48.090;9.754;2023-07-31T03:17:34;4.10;;;2.33;;
22965;SDS011;11649;48.090;9.754;2023-07-31T03:20:01;6.75;;;2.58;;
22965;SDS011;11649;48.090;9.754;2023-07-31T03:22:27;6.93;;;2.60;;
22965;SDS011;11649;48.090;9.754;2023-07-31T03:24:54;5.38;;;2.90;;
22965;SDS011;11649;48.090;9.754;2023-07-31T03:27:21;5.00;;;2.90;;
22965;SDS011;11649;48.090;9.754;2023-07-31T03:29:48;5.18;;;2.60;;
22965;SDS011;11649;48.090;9.754;2023-07-31T03:32:17;5.80;;;2.78;;
22965;SDS011;11649;48.090;9.754;2023-07-31T03:34:44;6.10;;;2.97;;
22965;SDS011;11649;48.090;9.754;2023-07-31T03:37:11;5.82;;;2.70;;
22965;SDS011;11649;48.090;9.754;2023-07-31T03:39:37;8.02;;;2.53;;
22965;SDS011;11649;48.090;9.754;2023-07-31T03:42:04;5.57;;;2.50;;
22965;SDS011;11649;48.090;9.754;2023-07-31T03:44:31;5.60;;;2.83;;
22965;SDS011;11649;48.090;9.754;2023-07-31T03:46:58;5.60;;;2.72;;
22965;SDS011;11649;48.090;9.754;2023-07-31T03:49:25;4.30;;;2.45;;
22965;SDS011;11649;48.090;9.754;2023-07-31T03:51:53;5.25;;;2.70;;
22965;SDS011;11649;48.090;9.754;2023-07-31T03:54:20;5.60;;;2.42;;
22965;SDS011;11649;48.090;9.754;2023-07-31T03:56:47;3.92;;;2.45;;
22965;SDS011;11649;48.090;9.754;2023-07-31T03:59:14;3.45;;;2.63;;
22965;SDS011;11649;48.090;9.754;2023-07-31T04:01:40;3.88;;;2.88;;
22965;SDS011;11649;48.090;9.754;2023-07-31T04:04:07;4.68;;;2.60;;
22965;SDS011;11649;48.090;9.754;2023-07-31T04:06:34;3.83;;;2.90;;
22965;SDS011;11649;48.090;9.754;2023-07-31T04:09:02;6.20;;;2.78;;
22965;SDS011;11649;48.090;9.754;2023-07-31T04:11:29;6.20;;;3.15;;
22965;SDS011;11649;48.090;9.754;2023-07-31T04:13:56;3.78;;;2.70;;
22965;SDS011;11649;48.090;9.754;2023-07-31T04:16:22;4.60;;;2.90;;
22965;SDS011;11649;48.090;9.754;2023-07-31T04:18:49;7.22;;;2.95;;
22965;SDS011;11649;48.090;9.754;2023-07-31T04:21:16;7.95;;;3.42;;
22965;SDS011;11649;48.090;9.754;2023-07-31T04:23:44;5.75;;;2.75;;
22965;SDS011;11649;48.090;9.754;2023-07-31T04:26:10;5.72;;;3.03;;
22965;SDS011;11649;48.090;9.754;2023-07-31T04:28:37;5.38;;;2.97;;
22965;SDS011;11649;48.090;9.754;2023-07-31T04:31:04;6.00;;;2.90;;
22965;SDS011;11649;48.090;9.754;2023-07-31T04:33:31;5.95;;;2.75;;
22965;SDS011;11649;48.090;9.754;2023-07-31T04:35:58;4.80;;;2.85;;
22965;SDS011;11649;48.090;9.754;2023-07-31T04:38:25;4.63;;;2.70;;
22965;SDS011;11649;48.090;9.754;2023-07-31T04:40:52;5.40;;;3.10;;
22965;SDS011;11649;48.090;9.754;2023-07-31T04:43:19;4.75;;;2.90;;
22965;SDS011;11649;48.090;9.754;2023-07-31T04:45:46;5.75;;;3.17;;
22965;SDS011;11649;48.090;9.754;2023-07-31T04:48:14;3.67;;;2.80;;
22965;SDS011;11649;48.090;9.754;2023-07-31T04:50:41;4.60;;;2.90;;
22965;SDS011;11649;48.090;9.754;2023-07-31T04:53:08;4.55;;;2.92;;
22965;SDS011;11649;48.090;9.754;2023-07-31T04:55:35;4.07;;;2.85;;
22965;SDS011;11649;48.090;9.754;2023-07-31T04:58:01;6.18;;;3.20;;
22965;SDS011;11649;48.090;9.754;2023-07-31T05:00:28;8.07;;;3.50;;
22965;SDS011;11649;48.090;9.754;2023-07-31T05:02:55;8.85;;;3.70;;
22965;SDS011;11649;48.090;9.754;2023-07-31T05:05:22;8.45;;;3.55;;
22965;SDS011;11649;48.090;9.754;2023-07-31T05:07:49;10.77;;;3.75;;
22965;SDS011;11649;48.090;9.754;2023-07-31T05:10:19;7.53;;;3.83;;
22965;SDS011;11649;48.090;9.754;2023-07-31T05:12:45;5.72;;;3.38;;
22965;SDS011;11649;48.090;9.754;2023-07-31T05:15:12;8.13;;;3.10;;
22965;SDS011;11649;48.090;9.754;2023-07-31T05:17:41;5.57;;;3.30;;
22965;SDS011;11649;48.090;9.754;2023-07-31T05:20:08;8.25;;;3.50;;
22965;SDS011;11649;48.090;9.754;2023-07-31T05:22:35;5.85;;;3.38;;
22965;SDS011;11649;48.090;9.754;2023-07-31T05:25:02;4.53;;;3.13;;
22965;SDS011;11649;48.090;9.754;2023-07-31T05:27:29;3.13;;;2.72;;
22965;SDS011;11649;48.090;9.754;2023-07-31T05:29:56;5.70;;;3.13;;
22965;SDS011;11649;48.090;9.754;2023-07-31T05:32:23;5.53;;;3.55;;
22965;SDS011;11649;48.090;9.754;2023-07-31T05:34:52;6.40;;;3.20;;
22965;SDS011;11649;48.090;9.754;2023-07-31T05:37:19;7.35;;;3.05;;
22965;SDS011;11649;48.090;9.754;2023-07-31T05:39:59;10.38;;;3.67;;
22965;SDS011;11649;48.090;9.754;2023-07-31T05:42:26;8.77;;;3.83;;
22965;SDS011;11649;48.090;9.754;2023-07-31T05:44:53;10.20;;;3.20;;
22965;SDS011;11649;48.090;9.754;2023-07-31T05:47:20;11.10;;;3.50;;
22965;SDS011;11649;48.090;9.754;2023-07-31T05:49:48;7.80;;;3.28;;
22965;SDS011;11649;48.090;9.754;2023-07-31T05:52:15;9.73;;;3.50;;
22965;SDS011;11649;48.090;9.754;2023-07-31T05:54:42;9.40;;;3.45;;
22965;SDS011;11649;48.090;9.754;2023-07-31T05:57:09;12.02;;;3.78;;
22965;SDS011;11649;48.090;9.754;2023-07-31T05:59:36;10.20;;;3.88;;
22965;SDS011;11649;48.090;9.754;2023-07-31T06:02:03;17.35;;;3.45;;
22965;SDS011;11649;48.090;9.754;2023-07-31T06:04:29;15.30;;;3.80;;
22965;SDS011;11649;48.090;9.754;2023-07-31T06:06:56;9.30;;;3.30;;
22965;SDS011;11649;48.090;9.754;2023-07-31T06:09:23;9.93;;;3.40;;
22965;SDS011;11649;48.090;9.754;2023-07-31T06:11:50;14.73;;;3.20;;
22965;SDS011;11649;48.090;9.754;2023-07-31T06:14:17;7.55;;;2.80;;
22965;SDS011;11649;48.090;9.754;2023-07-31T06:16:44;9.23;;;2.80;;
22965;SDS011;11649;48.090;9.754;2023-07-31T06:19:11;10.52;;;3.22;;
22965;SDS011;11649;48.090;9.754;2023-07-31T06:21:38;9.23;;;2.97;;
22965;SDS011;11649;48.090;9.754;2023-07-31T06:24:05;6.40;;;3.10;;
22965;SDS011;11649;48.090;9.754;2023-07-31T06:26:32;11.00;;;2.95;;
22965;SDS011;11649;48.090;9.754;2023-07-31T06:28:59;9.48;;;2.80;;
22965;SDS011;11649;48.090;9.754;2023-07-31T06:31:25;6.30;;;2.60;;
22965;SDS011;11649;48.090;9.754;2023-07-31T06:33:52;8.98;;;2.53;;
22965;SDS011;11649;48.090;9.754;2023-07-31T06:36:20;5.75;;;2.38;;
22965;SDS011;11649;48.090;9.754;2023-07-31T06:38:47;7.15;;;2.50;;
22965;SDS011;11649;48.090;9.754;2023-07-31T06:41:14;6.10;;;2.63;;
22965;SDS011;11649;48.090;9.754;2023-07-31T06:43:40;3.83;;;2.38;;
22965;SDS011;11649;48.090;9.754;2023-07-31T06:46:07;6.40;;;2.35;;
22965;SDS011;11649;48.090;9.754;2023-07-31T06:48:35;7.28;;;2.30;;
22965;SDS011;11649;48.090;9.754;2023-07-31T06:51:03;7.53;;;2.35;;
22965;SDS011;11649;48.090;9.754;2023-07-31T06:53:30;4.07;;;2.22;;
22965;SDS011;11649;48.090;9.754;2023-07-31T06:55:57;8.00;;;2.10;;
22965;SDS011;11649;48.090;9.754;2023-07-31T06:58:24;3.83;;;2.00;;
22965;SDS011;11649;48.090;9.754;2023-07-31T07:00:50;3.20;;;2.17;;
22965;SDS011;11649;48.090;9.754;2023-07-31T07:03:18;5.60;;;1.98;;
22965;SDS011;11649;48.090;9.754;2023-07-31T07:05:45;5.63;;;2.00;;
22965;SDS011;11649;48.090;9.754;2023-07-31T07:08:12;5.32;;;2.05;;
22965;SDS011;11649;48.090;9.754;2023-07-31T07:10:38;4.90;;;1.90;;
22965;SDS011;11649;48.090;9.754;2023-07-31T07:13:05;6.18;;;2.05;;
22965;SDS011;11649;48.090;9.754;2023-07-31T07:15:32;5.03;;;1.80;;
22965;SDS011;11649;48.090;9.754;2023-07-31T07:17:59;4.47;;;1.90;;
22965;SDS011;11649;48.090;9.754;2023-07-31T07:20:26;5.43;;;1.98;;
22965;SDS011;11649;48.090;9.754;2023-07-31T07:22:52;3.28;;;1.70;;
22965;SDS011;11649;48.090;9.754;2023-07-31T07:25:19;7.55;;;2.10;;
22965;SDS011;11649;48.090;9.754;2023-07-31T07:27:46;8.02;;;2.33;;
22965;SDS011;11649;48.090;9.754;2023-07-31T07:30:13;4.53;;;2.25;;
22965;SDS011;11649;48.090;9.754;2023-07-31T07:32:40;7.20;;;2.20;;
22965;SDS011;11649;48.090;9.754;2023-07-31T07:35:07;4.70;;;2.10;;
22965;SDS011;11649;48.090;9.754;2023-07-31T07:37:34;6.28;;;2.03;;
22965;SDS011;11649;48.090;9.754;2023-07-31T07:40:01;3.25;;;1.90;;
22965;SDS011;11649;48.090;9.754;2023-07-31T07:42:28;5.22;;;1.70;;
22965;SDS011;11649;48.090;9.754;2023-07-31T07:44:55;11.95;;;2.15;;
22965;SDS011;11649;48.090;9.754;2023-07-31T07:47:22;4.60;;;1.90;;
22965;SDS011;11649;48.090;9.754;2023-07-31T07:49:48;4.88;;;1.90;;
22965;SDS011;11649;48.090;9.754;2023-07-31T07:52:18;5.80;;;2.20;;
22965;SDS011;11649;48.090;9.754;2023-07-31T07:54:45;6.75;;;2.03;;
22965;SDS011;11649;48.090;9.754;2023-07-31T07:57:12;6.85;;;1.77;;
22965;SDS011;11649;48.090;9.754;2023-07-31T07:59:39;5.18;;;2.00;;
22965;SDS011;11649;48.090;9.754;2023-07-31T08:02:06;3.38;;;1.85;;
22965;SDS011;11649;48.090;9.754;2023-07-31T08:04:33;6.15;;;2.13;;
22965;SDS011;11649;48.090;9.754;2023-07-31T08:07:00;2.85;;;1.92;;
22965;SDS011;11649;48.090;9.754;2023-07-31T08:09:26;5.32;;;2.30;;
22965;SDS011;11649;48.090;9.754;2023-07-31T08:11:53;5.85;;;2.10;;
22965;SDS011;11649;48.090;9.754;2023-07-31T08:14:20;5.63;;;2.15;;
22965;SDS011;11649;48.090;9.754;2023-07-31T08:16:47;4.00;;;1.95;;
22965;SDS011;11649;48.090;9.754;2023-07-31T08:19:14;4.25;;;1.80;;
22965;SDS011;11649;48.090;9.754;2023-07-31T08:21:41;4.13;;;1.95;;
22965;SDS011;11649;48.090;9.754;2023-07-31T08:24:08;9.20;;;1.98;;
22965;SDS011;11649;48.090;9.754;2023-07-31T08:26:34;3.67;;;1.70;;
22965;SDS011;11649;48.090;9.754;2023-07-31T08:29:01;4.95;;;1.67;;
22965;SDS011;11649;48.090;9.754;2023-07-31T08:31:28;3.97;;;1.90;;
22965;SDS011;11649;48.090;9.754;2023-07-31T08:33:55;5.43;;;1.80;;
22965;SDS011;11649;48.090;9.754;2023-07-31T08:36:22;4.75;;;1.65;;
22965;SDS011;11649;48.090;9.754;2023-07-31T08:39:04;4.43;;;1.90;;
22965;SDS011;11649;48.090;9.754;2023-07-31T08:41:31;4.03;;;1.55;;
22965;SDS011;11649;48.090;9.754;2023-07-31T08:44:06;3.60;;;1.90;;
22965;SDS011;11649;48.090;9.754;2023-07-31T08:46:34;3.95;;;1.80;;
22965;SDS011;11649;48.090;9.754;2023-07-31T08:49:02;4.65;;;1.60;;
22965;SDS011;11649;48.090;9.754;2023-07-31T08:51:33;6.25;;;1.67;;
22965;SDS011;11649;48.090;9.754;2023-07-31T08:54:01;4.95;;;1.67;;
22965;SDS011;11649;48.090;9.754;2023-07-31T08:56:31;3.05;;;1.73;;
22965;SDS011;11649;48.090;9.754;2023-07-31T08:58:59;5.80;;;1.98;;
22965;SDS011;11649;48.090;9.754;2023-07-31T09:01:28;4.25;;;1.75;;
22965;SDS011;11649;48.090;9.754;2023-07-31T09:03:58;4.85;;;2.15;;
22965;SDS011;11649;48.090;9.754;2023-07-31T09:06:28;3.63;;;1.88;;
22965;SDS011;11649;48.090;9.754;2023-07-31T09:08:56;5.53;;;1.70;;
22965;SDS011;11649;48.090;9.754;2023-07-31T09:11:23;4.03;;;1.80;;
22965;SDS011;11649;48.090;9.754;2023-07-31T09:13:52;4.88;;;1.80;;
22965;SDS011;11649;48.090;9.754;2023-07-31T09:19:24;3.17;;;1.52;;
22965;SDS011;11649;48.090;9.754;2023-07-31T09:21:52;4.72;;;1.63;;
22965;SDS011;11649;48.090;9.754;2023-07-31T09:24:28;5.85;;;2.05;;
22965;SDS011;11649;48.090;9.754;2023-07-31T09:26:58;3.75;;;1.90;;
22965;SDS011;11649;48.090;9.754;2023-07-31T09:29:26;6.50;;;2.17;;
22965;SDS011;11649;48.090;9.754;2023-07-31T09:31:54;3.67;;;1.73;;
22965;SDS011;11649;48.090;9.754;2023-07-31T09:34:28;6.63;;;1.80;;
22965;SDS011;11649;48.090;9.754;2023-07-31T09:37:05;4.43;;;1.70;;
22965;SDS011;11649;48.090;9.754;2023-07-31T09:39:32;6.45;;;1.63;;
22965;SDS011;11649;48.090;9.754;2023-07-31T09:42:14;3.92;;;1.80;;
22965;SDS011;11649;48.090;9.754;2023-07-31T09:44:51;6.05;;;2.03;;
22965;SDS011;11649;48.090;9.754;2023-07-31T09:47:24;5.43;;;1.90;;
22965;SDS011;11649;48.090;9.754;2023-07-31T09:49:52;3.28;;;1.52;;
22965;SDS011;11649;48.090;9.754;2023-07-31T09:52:19;3.92;;;1.70;;
22965;SDS011;11649;48.090;9.754;2023-07-31T09:54:46;4.22;;;1.70;;
22965;SDS011;11649;48.090;9.754;2023-07-31T09:57:14;4.05;;;1.63;;
22965;SDS011;11649;48.090;9.754;2023-07-31T09:59:44;3.97;;;1.83;;
22965;SDS011;11649;48.090;9.754;2023-07-31T10:02:14;3.38;;;1.60;;
22965;SDS011;11649;48.090;9.754;2023-07-31T10:04:47;5.20;;;1.95;;
22965;SDS011;11649;48.090;9.754;2023-07-31T10:07:16;3.90;;;1.77;;
22965;SDS011;11649;48.090;9.754;2023-07-31T10:09:44;3.90;;;1.80;;
22965;SDS011;11649;48.090;9.754;2023-07-31T10:12:13;3.03;;;1.52;;
22965;SDS011;11649;48.090;9.754;2023-07-31T10:14:43;4.93;;;1.88;;
22965;SDS011;11649;48.090;9.754;2023-07-31T10:17:10;4.75;;;1.90;;
22965;SDS011;11649;48.090;9.754;2023-07-31T10:19:38;4.57;;;1.67;;
22965;SDS011;11649;48.090;9.754;2023-07-31T10:22:06;4.55;;;1.92;;
22965;SDS011;11649;48.090;9.754;2023-07-31T10:24:36;3.67;;;1.77;;
22965;SDS011;11649;48.090;9.754;2023-07-31T10:29:45;5.13;;;1.83;;
22965;SDS011;11649;48.090;9.754;2023-07-31T10:32:14;6.05;;;1.83;;
22965;SDS011;11649;48.090;9.754;2023-07-31T10:34:43;4.25;;;1.80;;
22965;SDS011;11649;48.090;9.754;2023-07-31T10:37:23;3.75;;;2.00;;
22965;SDS011;11649;48.090;9.754;2023-07-31T10:39:55;4.93;;;1.90;;
22965;SDS011;11649;48.090;9.754;2023-07-31T10:42:35;7.20;;;2.10;;
22965;SDS011;11649;48.090;9.754;2023-07-31T10:45:08;2.90;;;1.77;;
22965;SDS011;11649;48.090;9.754;2023-07-31T10:47:45;3.55;;;1.60;;
22965;SDS011;11649;48.090;9.754;2023-07-31T10:50:13;4.32;;;1.90;;
22965;SDS011;11649;48.090;9.754;2023-07-31T10:52:48;3.70;;;1.73;;
22965;SDS011;11649;48.090;9.754;2023-07-31T10:58:09;3.28;;;1.83;;
22965;SDS011;11649;48.090;9.754;2023-07-31T11:00:38;4.70;;;2.10;;
22965;SDS011;11649;48.090;9.754;2023-07-31T11:03:06;4.90;;;1.90;;
22965;SDS011;11649;48.090;9.754;2023-07-31T11:08:27;3.53;;;1.88;;
22965;SDS011;11649;48.090;9.754;2023-07-31T11:13:28;4.20;;;1.83;;
22965;SDS011;11649;48.090;9.754;2023-07-31T11:15:56;6.30;;;2.00;;
22965;SDS011;11649;48.090;9.754;2023-07-31T11:18:23;4.03;;;1.90;;
22965;SDS011;11649;48.090;9.754;2023-07-31T11:20:50;4.60;;;2.00;;
22965;SDS011;11649;48.090;9.754;2023-07-31T11:23:17;5.45;;;2.03;;
22965;SDS011;11649;48.090;9.754;2023-07-31T11:25:45;5.10;;;2.03;;
22965;SDS011;11649;48.090;9.754;2023-07-31T11:28:13;4.97;;;2.03;;
22965;SDS011;11649;48.090;9.754;2023-07-31T11:30:41;2.85;;;1.60;;
22965;SDS011;11649;48.090;9.754;2023-07-31T11:33:11;4.75;;;1.90;;
22965;SDS011;11649;48.090;9.754;2023-07-31T11:35:46;5.93;;;1.80;;
22965;SDS011;11649;48.090;9.754;2023-07-31T11:38:22;3.65;;;1.67;;
22965;SDS011;11649;48.090;9.754;2023-07-31T11:40:50;5.93;;;2.03;;
22965;SDS011;11649;48.090;9.754;2023-07-31T11:43:21;3.72;;;1.92;;
22965;SDS011;11649;48.090;9.754;2023-07-31T11:45:53;3.70;;;1.70;;
22965;SDS011;11649;48.090;9.754;2023-07-31T11:48:23;4.63;;;1.80;;
22965;SDS011;11649;48.090;9.754;2023-07-31T11:51:12;3.20;;;1.70;;
22965;SDS011;11649;48.090;9.754;2023-07-31T11:53:56;4.43;;;2.00;;
22965;SDS011;11649;48.090;9.754;2023-07-31T11:56:24;5.10;;;1.70;;
22965;SDS011;11649;48.090;9.754;2023-07-31T11:58:57;4.15;;;1.70;;
22965;SDS011;11649;48.090;9.754;2023-07-31T12:01:26;3.95;;;2.10;;
22965;SDS011;11649;48.090;9.754;2023-07-31T12:03:54;5.68;;;2.17;;
22965;SDS011;11649;48.090;9.754;2023-07-31T12:06:22;4.78;;;1.83;;
22965;SDS011;11649;48.090;9.754;2023-07-31T12:09:05;3.80;;;1.83;;
22965;SDS011;11649;48.090;9.754;2023-07-31T12:11:45;2.78;;;1.65;;
22965;SDS011;11649;48.090;9.754;2023-07-31T12:14:26;5.03;;;1.73;;
22965;SDS011;11649;48.090;9.754;2023-07-31T12:16:56;6.05;;;1.80;;
22965;SDS011;11649;48.090;9.754;2023-07-31T12:19:30;5.60;;;1.90;;
22965;SDS011;11649;48.090;9.754;2023-07-31T12:22:00;4.05;;;1.73;;
22965;SDS011;11649;48.090;9.754;2023-07-31T12:24:28;5.15;;;1.95;;
22965;SDS011;11649;48.090;9.754;2023-07-31T12:26:55;4.50;;;1.75;;
22965;SDS011;11649;48.090;9.754;2023-07-31T12:29:22;3.90;;;2.25;;
22965;SDS011;11649;48.090;9.754;2023-07-31T12:31:48;3.58;;;1.90;;
22965;SDS011;11649;48.090;9.754;2023-07-31T12:34:16;6.57;;;1.75;;
22965;SDS011;11649;48.090;9.754;2023-07-31T12:36:47;4.97;;;1.85;;
22965;SDS011;11649;48.090;9.754;2023-07-31T12:39:17;5.75;;;2.20;;
22965;SDS011;11649;48.090;9.754;2023-07-31T12:41:43;4.18;;;1.73;;
22965;SDS011;11649;48.090;9.754;2023-07-31T12:44:10;4.05;;;1.70;;
22965;SDS011;11649;48.090;9.754;2023-07-31T12:46:37;3.65;;;1.85;;
22965;SDS011;11649;48.090;9.754;2023-07-31T12:49:04;3.25;;;1.77;;
22965;SDS011;11649;48.090;9.754;2023-07-31T12:51:40;5.35;;;1.90;;
22965;SDS011;11649;48.090;9.754;2023-07-31T12:54:07;4.78;;;2.33;;
22965;SDS011;11649;48.090;9.754;2023-07-31T12:56:35;3.58;;;2.15;;
22965;SDS011;11649;48.090;9.754;2023-07-31T12:59:01;5.20;;;2.25;;
22965;SDS011;11649;48.090;9.754;2023-07-31T13:01:28;7.20;;;2.20;;
22965;SDS011;11649;48.090;9.754;2023-07-31T13:03:55;5.10;;;2.10;;
22965;SDS011;11649;48.090;9.754;2023-07-31T13:06:22;4.45;;;1.90;;
22965;SDS011;11649;48.090;9.754;2023-07-31T13:08:49;4.32;;;2.22;;
22965;SDS011;11649;48.090;9.754;2023-07-31T13:11:16;4.45;;;2.28;;
22965;SDS011;11649;48.090;9.754;2023-07-31T13:13:42;5.97;;;2.20;;
22965;SDS011;11649;48.090;9.754;2023-07-31T13:16:10;4.85;;;2.08;;
22965;SDS011;11649;48.090;9.754;2023-07-31T13:18:37;3.58;;;2.08;;
22965;SDS011;11649;48.090;9.754;2023-07-31T13:21:03;3.72;;;2.00;;
22965;SDS011;11649;48.090;9.754;2023-07-31T13:23:30;5.38;;;2.22;;
22965;SDS011;11649;48.090;9.754;2023-07-31T13:26:09;3.17;;;2.00;;
22965;SDS011;11649;48.090;9.754;2023-07-31T13:28:36;5.03;;;2.00;;
22965;SDS011;11649;48.090;9.754;2023-07-31T13:31:03;4.35;;;1.80;;
22965;SDS011;11649;48.090;9.754;2023-07-31T13:33:30;2.63;;;1.90;;
22965;SDS011;11649;48.090;9.754;2023-07-31T13:36:02;6.72;;;2.20;;
22965;SDS011;11649;48.090;9.754;2023-07-31T13:38:29;3.20;;;1.95;;
22965;SDS011;11649;48.090;9.754;2023-07-31T13:40:56;5.55;;;2.35;;
22965;SDS011;11649;48.090;9.754;2023-07-31T13:43:23;5.85;;;2.47;;
22965;SDS011;11649;48.090;9.754;2023-07-31T13:45:49;4.85;;;2.38;;
22965;SDS011;11649;48.090;9.754;2023-07-31T13:48:16;3.25;;;2.08;;
22965;SDS011;11649;48.090;9.754;2023-07-31T13:50:43;6.80;;;2.30;;
22965;SDS011;11649;48.090;9.754;2023-07-31T13:53:10;4.47;;;2.03;;
22965;SDS011;11649;48.090;9.754;2023-07-31T13:55:36;7.20;;;2.30;;
22965;SDS011;11649;48.090;9.754;2023-07-31T13:58:03;3.60;;;1.90;;
22965;SDS011;11649;48.090;9.754;2023-07-31T14:00:30;4.07;;;2.03;;
22965;SDS011;11649;48.090;9.754;2023-07-31T14:02:57;3.20;;;2.13;;
22965;SDS011;11649;48.090;9.754;2023-07-31T14:05:23;5.07;;;2.42;;
22965;SDS011;11649;48.090;9.754;2023-07-31T14:07:50;4.00;;;1.98;;
22965;SDS011;11649;48.090;9.754;2023-07-31T14:10:17;4.88;;;2.15;;
22965;SDS011;11649;48.090;9.754;2023-07-31T14:12:44;4.75;;;2.08;;
22965;SDS011;11649;48.090;9.754;2023-07-31T14:15:10;6.15;;;2.30;;
22965;SDS011;11649;48.090;9.754;2023-07-31T14:17:37;6.25;;;1.95;;
22965;SDS011;11649;48.090;9.754;2023-07-31T14:20:05;6.65;;;2.28;;
22965;SDS011;11649;48.090;9.754;2023-07-31T14:22:33;4.57;;;2.50;;
22965;SDS011;11649;48.090;9.754;2023-07-31T14:25:00;5.05;;;2.20;;
22965;SDS011;11649;48.090;9.754;2023-07-31T14:27:27;7.03;;;2.40;;
22965;SDS011;11649;48.090;9.754;2023-07-31T14:32:35;8.25;;;2.30;;
22965;SDS011;11649;48.090;9.754;2023-07-31T14:35:03;3.55;;;1.95;;
22965;SDS011;11649;48.090;9.754;2023-07-31T14:37:37;5.40;;;2.10;;
22965;SDS011;11649;48.090;9.754;2023-07-31T14:40:05;4.85;;;2.00;;
22965;SDS011;11649;48.090;9.754;2023-07-31T14:42:33;5.53;;;2.10;;
22965;SDS011;11649;48.090;9.754;2023-07-31T14:45:00;6.57;;;2.10;;
22965;SDS011;11649;48.090;9.754;2023-07-31T14:47:28;3.45;;;2.13;;
22965;SDS011;11649;48.090;9.754;2023-07-31T14:49:57;5.85;;;2.50;;
22965;SDS011;11649;48.090;9.754;2023-07-31T14:52:24;4.32;;;2.08;;
22965;SDS011;11649;48.090;9.754;2023-07-31T14:54:51;4.63;;;2.25;;
22965;SDS011;11649;48.090;9.754;2023-07-31T14:57:18;4.50;;;2.30;;
22965;SDS011;11649;48.090;9.754;2023-07-31T14:59:45;2.33;;;1.80;;
22965;SDS011;11649;48.090;9.754;2023-07-31T15:02:12;5.05;;;2.00;;
22965;SDS011;11649;48.090;9.754;2023-07-31T15:04:39;4.03;;;2.20;;
22965;SDS011;11649;48.090;9.754;2023-07-31T15:07:06;3.05;;;2.13;;
22965;SDS011;11649;48.090;9.754;2023-07-31T15:09:32;5.18;;;2.15;;
22965;SDS011;11649;48.090;9.754;2023-07-31T15:11:59;5.03;;;2.25;;
22965;SDS011;11649;48.090;9.754;2023-07-31T15:14:26;4.72;;;1.90;;
22965;SDS011;11649;48.090;9.754;2023-07-31T15:16:57;5.03;;;2.30;;
22965;SDS011;11649;48.090;9.754;2023-07-31T15:19:24;4.32;;;2.15;;